This is the latest recevied weather packets stored in our database for station/object HB9SZU-6. If no packets are shown the sender has not sent any weather packets the latest 10 day(s).
| Time | Temp. | Humidity | Pressure | Rain* | Wind** | Luminosity | Snow |
|---|---|---|---|---|---|---|---|
| 1778250472 | 22.22° C | 52% | 1019.8 hPa | 0 mm | - | - | - |
| 1778249572 | 22.22° C | 53% | 1019.8 hPa | 0 mm | - | - | - |
| 1778248672 | 21.67° C | 54% | 1020.1 hPa | 0 mm | - | - | - |
| 1778247772 | 21.67° C | 54% | 1020.1 hPa | 0 mm | - | - | - |
| 1778246872 | 21.11° C | 55% | 1020.4 hPa | 0 mm | - | - | - |
| 1778245972 | 21.11° C | 56% | 1020.5 hPa | 0 mm | - | - | - |
| 1778245072 | 21.11° C | 55% | 1020.5 hPa | 0 mm | - | - | - |
| 1778244173 | 21.11° C | 54% | 1020.6 hPa | 0 mm | - | - | - |
| 1778243273 | 21.67° C | 54% | 1020.6 hPa | 0 mm | - | - | - |
| 1778242373 | 21.67° C | 54% | 1020.5 hPa | 0 mm | - | - | - |
| 1778241474 | 21.11° C | 54% | 1020.6 hPa | 0 mm | - | - | - |
| 1778240573 | 21.11° C | 58% | 1020.6 hPa | 0 mm | - | - | - |
| 1778239673 | 20° C | 59% | 1020.8 hPa | 0 mm | - | - | - |
| 1778238772 | 20° C | 59% | 1020.8 hPa | 0 mm | - | - | - |
| 1778237873 | 18.89° C | 61% | 1021 hPa | 0 mm | - | - | - |
| 1778236973 | 17.78° C | 62% | 1021 hPa | 0 mm | - | - | - |
| 1778236073 | 17.78° C | 62% | 1021 hPa | 0 mm | - | - | - |
| 1778235173 | 17.78° C | 62% | 1021 hPa | 0 mm | - | - | - |
| 1778234273 | 17.78° C | 62% | 1021 hPa | 0 mm | - | - | - |
| 1778233373 | 17.78° C | 62% | 1021.1 hPa | 0 mm | - | - | - |
| 1778232473 | 17.78° C | 62% | 1021.2 hPa | 0 mm | - | - | - |
| 1778231573 | 17.78° C | 64% | 1021.2 hPa | 0 mm | - | - | - |
| 1778230673 | 17.22° C | 64% | 1021.1 hPa | 0 mm | - | - | - |
| 1778229773 | 15° C | 71% | 1021.4 hPa | 0 mm | - | - | - |
| 1778228873 | 15° C | 71% | 1021.4 hPa | 0 mm | - | - | - |
* Rain latest hour (hover to see other rain measurements)
** Current wind speed in m/s (hover to see current wind gust speed)